sensor_id;sensor_type;location;lat;lon;timestamp;pressure;altitude;pressure_sealevel;temperature;humidity
63622;BME280;49770;47.544;19.074;2023-04-27T04:12:39;100597.53;;;2.26;100.00
63622;BME280;49770;47.544;19.074;2023-04-27T04:15:48;100603.69;;;2.23;100.00
63622;BME280;49770;47.544;19.074;2023-04-27T04:18:56;100611.47;;;2.26;100.00
63622;BME280;49770;47.544;19.074;2023-04-27T04:22:10;100624.41;;;2.40;100.00
63622;BME280;49770;47.544;19.074;2023-04-27T04:25:18;100621.59;;;2.56;100.00
63622;BME280;49770;47.544;19.074;2023-04-27T04:28:26;100615.38;;;2.66;100.00
63622;BME280;49770;47.544;19.074;2023-04-27T04:31:32;100622.22;;;2.78;100.00
63622;BME280;49770;47.544;19.074;2023-04-27T04:34:43;100615.94;;;2.90;100.00
63622;BME280;49770;47.544;19.074;2023-04-27T04:37:52;100620.16;;;3.01;100.00
63622;BME280;49770;47.544;19.074;2023-04-27T04:41:00;100625.28;;;3.08;100.00
63622;BME280;49770;47.544;19.074;2023-04-27T04:44:11;100624.13;;;3.28;100.00
63622;BME280;49770;47.544;19.074;2023-04-27T04:47:22;100628.25;;;3.43;100.00
63622;BME280;49770;47.544;19.074;2023-04-27T04:50:29;100635.12;;;3.50;100.00
63622;BME280;49770;47.544;19.074;2023-04-27T04:53:38;100628.81;;;3.62;100.00
63622;BME280;49770;47.544;19.074;2023-04-27T04:56:46;100633.03;;;3.71;100.00
63622;BME280;49770;47.544;19.074;2023-04-27T04:59:56;100632.84;;;3.82;100.00
63622;BME280;49770;47.544;19.074;2023-04-27T05:03:02;100633.41;;;4.01;100.00
63622;BME280;49770;47.544;19.074;2023-04-27T05:06:14;100632.03;;;4.27;100.00
63622;BME280;49770;47.544;19.074;2023-04-27T05:09:22;100637.47;;;4.62;100.00
63622;BME280;49770;47.544;19.074;2023-04-27T05:12:30;100633.69;;;4.76;99.49
63622;BME280;49770;47.544;19.074;2023-04-27T05:15:39;100642.59;;;5.09;95.28
63622;BME280;49770;47.544;19.074;2023-04-27T05:18:49;100646.87;;;5.15;95.50
63622;BME280;49770;47.544;19.074;2023-04-27T05:21:57;100650.37;;;5.52;93.40
63622;BME280;49770;47.544;19.074;2023-04-27T05:25:05;100652.44;;;6.75;89.15
63622;BME280;49770;47.544;19.074;2023-04-27T05:28:11;100663.94;;;7.60;81.00
63622;BME280;49770;47.544;19.074;2023-04-27T05:31:19;100657.44;;;8.46;76.76
63622;BME280;49770;47.544;19.074;2023-04-27T05:34:29;100661.63;;;9.01;72.54
63622;BME280;49770;47.544;19.074;2023-04-27T05:37:36;100667.44;;;9.56;70.58
63622;BME280;49770;47.544;19.074;2023-04-27T05:40:43;100664.63;;;9.16;70.64
63622;BME280;49770;47.544;19.074;2023-04-27T05:43:54;100667.84;;;9.67;68.34
63622;BME280;49770;47.544;19.074;2023-04-27T05:47:01;100669.78;;;10.48;67.51
63622;BME280;49770;47.544;19.074;2023-04-27T05:50:10;100671.37;;;11.84;60.32
63622;BME280;49770;47.544;19.074;2023-04-27T05:53:17;100682.25;;;12.50;58.55
63622;BME280;49770;47.544;19.074;2023-04-27T05:56:23;100674.78;;;12.23;57.01
63622;BME280;49770;47.544;19.074;2023-04-27T05:59:30;100679.59;;;13.16;51.18
63622;BME280;49770;47.544;19.074;2023-04-27T06:02:36;100683.28;;;12.97;48.30
63622;BME280;49770;47.544;19.074;2023-04-27T06:05:42;100682.09;;;13.35;46.13
63622;BME280;49770;47.544;19.074;2023-04-27T06:08:46;100680.56;;;14.39;44.84
63622;BME280;49770;47.544;19.074;2023-04-27T06:11:51;100682.88;;;14.74;40.92
63622;BME280;49770;47.544;19.074;2023-04-27T06:14:54;100685.84;;;13.79;40.77
63622;BME280;49770;47.544;19.074;2023-04-27T06:17:58;100688.88;;;13.73;39.72
63622;BME280;49770;47.544;19.074;2023-04-27T06:21:00;100689.28;;;13.81;40.39
63622;BME280;49770;47.544;19.074;2023-04-27T06:24:04;100687.69;;;13.30;39.90
63622;BME280;49770;47.544;19.074;2023-04-27T06:27:07;100694.87;;;13.28;40.05
63622;BME280;49770;47.544;19.074;2023-04-27T06:30:10;100689.78;;;12.75;41.36
63622;BME280;49770;47.544;19.074;2023-04-27T06:33:14;100696.62;;;12.46;42.56
63622;BME280;49770;47.544;19.074;2023-04-27T06:36:17;100695.06;;;12.93;42.19
63622;BME280;49770;47.544;19.074;2023-04-27T06:39:21;100697.59;;;12.78;42.95
63622;BME280;49770;47.544;19.074;2023-04-27T06:42:24;100703.06;;;13.41;42.29
63622;BME280;49770;47.544;19.074;2023-04-27T06:45:28;100696.78;;;12.94;42.22
63622;BME280;49770;47.544;19.074;2023-04-27T06:48:31;100709.69;;;13.18;41.79
63622;BME280;49770;47.544;19.074;2023-04-27T06:51:34;100707.78;;;14.29;38.02
63622;BME280;49770;47.544;19.074;2023-04-27T06:54:37;100710.28;;;16.43;35.34
63622;BME280;49770;47.544;19.074;2023-04-27T06:57:42;100702.03;;;17.35;32.18
63622;BME280;49770;47.544;19.074;2023-04-27T07:00:49;100708.78;;;16.26;33.35
63622;BME280;49770;47.544;19.074;2023-04-27T07:03:54;100707.38;;;16.07;33.48
63622;BME280;49770;47.544;19.074;2023-04-27T07:06:59;100712.53;;;15.55;34.09
63622;BME280;49770;47.544;19.074;2023-04-27T07:10:02;100716.16;;;16.22;33.59
63622;BME280;49770;47.544;19.074;2023-04-27T07:13:06;100711.25;;;17.44;32.33
63622;BME280;49770;47.544;19.074;2023-04-27T07:16:11;100714.03;;;16.92;30.75
63622;BME280;49770;47.544;19.074;2023-04-27T07:19:16;100713.81;;;17.70;30.06
63622;BME280;49770;47.544;19.074;2023-04-27T07:22:22;100715.53;;;16.70;30.34
63622;BME280;49770;47.544;19.074;2023-04-27T07:25:26;100709.66;;;16.39;31.37
63622;BME280;49770;47.544;19.074;2023-04-27T07:28:30;100714.66;;;15.90;33.45
63622;BME280;49770;47.544;19.074;2023-04-27T07:31:35;100717.56;;;15.32;33.73
63622;BME280;49770;47.544;19.074;2023-04-27T07:34:39;100710.72;;;14.85;34.78
63622;BME280;49770;47.544;19.074;2023-04-27T07:37:57;100725.69;;;14.73;35.20
63622;BME280;49770;47.544;19.074;2023-04-27T07:41:04;100721.41;;;14.99;33.91
63622;BME280;49770;47.544;19.074;2023-04-27T07:44:09;100723.69;;;15.05;33.40
63622;BME280;49770;47.544;19.074;2023-04-27T07:47:15;100731.34;;;14.82;32.56
63622;BME280;49770;47.544;19.074;2023-04-27T07:50:21;100726.22;;;15.36;32.93
63622;BME280;49770;47.544;19.074;2023-04-27T07:53:27;100721.66;;;15.66;32.21
63622;BME280;49770;47.544;19.074;2023-04-27T07:56:31;100719.53;;;15.71;30.00
63622;BME280;49770;47.544;19.074;2023-04-27T07:59:36;100712.09;;;16.29;28.86
63622;BME280;49770;47.544;19.074;2023-04-27T08:02:42;100714.03;;;17.05;30.33
63622;BME280;49770;47.544;19.074;2023-04-27T08:05:47;100711.84;;;17.23;29.87
63622;BME280;49770;47.544;19.074;2023-04-27T08:08:53;100703.28;;;17.18;29.29
63622;BME280;49770;47.544;19.074;2023-04-27T08:12:00;100714.19;;;18.26;28.93
63622;BME280;49770;47.544;19.074;2023-04-27T08:15:05;100715.25;;;17.87;27.81
63622;BME280;49770;47.544;19.074;2023-04-27T08:18:11;100715.22;;;16.88;26.77
63622;BME280;49770;47.544;19.074;2023-04-27T08:21:14;100710.59;;;17.65;27.53
63622;BME280;49770;47.544;19.074;2023-04-27T08:24:18;100719.97;;;17.59;25.96
63622;BME280;49770;47.544;19.074;2023-04-27T08:27:22;100719.88;;;18.68;26.31
63622;BME280;49770;47.544;19.074;2023-04-27T08:30:27;100722.78;;;19.34;24.40
63622;BME280;49770;47.544;19.074;2023-04-27T08:33:30;100722.00;;;17.69;26.67
63622;BME280;49770;47.544;19.074;2023-04-27T08:36:35;100724.75;;;16.92;28.24
63622;BME280;49770;47.544;19.074;2023-04-27T08:39:39;100722.06;;;16.27;28.24
63622;BME280;49770;47.544;19.074;2023-04-27T08:42:53;100715.34;;;16.74;28.67
63622;BME280;49770;47.544;19.074;2023-04-27T08:45:58;100714.63;;;17.22;28.96
63622;BME280;49770;47.544;19.074;2023-04-27T08:49:04;100715.16;;;17.27;27.01
63622;BME280;49770;47.544;19.074;2023-04-27T08:52:13;100709.94;;;17.13;27.39
63622;BME280;49770;47.544;19.074;2023-04-27T08:55:20;100718.66;;;16.77;28.12
63622;BME280;49770;47.544;19.074;2023-04-27T08:58:37;100715.00;;;16.26;30.24
63622;BME280;49770;47.544;19.074;2023-04-27T09:01:46;100711.81;;;16.47;30.39
63622;BME280;49770;47.544;19.074;2023-04-27T09:04:53;100703.09;;;16.17;29.39
63622;BME280;49770;47.544;19.074;2023-04-27T09:08:03;100700.97;;;16.75;30.28
63622;BME280;49770;47.544;19.074;2023-04-27T09:11:12;100709.22;;;16.46;29.69
63622;BME280;49770;47.544;19.074;2023-04-27T09:14:22;100702.78;;;16.35;29.66
63622;BME280;49770;47.544;19.074;2023-04-27T09:17:28;100695.19;;;16.81;31.15
63622;BME280;49770;47.544;19.074;2023-04-27T09:20:45;100701.19;;;16.71;29.45
63622;BME280;49770;47.544;19.074;2023-04-27T09:23:53;100703.31;;;17.05;29.06
63622;BME280;49770;47.544;19.074;2023-04-27T09:26:58;100693.94;;;18.44;28.12
63622;BME280;49770;47.544;19.074;2023-04-27T09:30:13;100697.06;;;18.15;27.74
63622;BME280;49770;47.544;19.074;2023-04-27T09:33:25;100706.28;;;19.38;26.53
63622;BME280;49770;47.544;19.074;2023-04-27T09:36:31;100703.44;;;20.17;25.91
63622;BME280;49770;47.544;19.074;2023-04-27T09:39:38;100691.37;;;21.05;24.89
63622;BME280;49770;47.544;19.074;2023-04-27T09:42:46;100698.37;;;20.55;24.34
63622;BME280;49770;47.544;19.074;2023-04-27T09:45:50;100693.00;;;19.14;25.48
63622;BME280;49770;47.544;19.074;2023-04-27T09:48:56;100680.50;;;18.79;25.17
63622;BME280;49770;47.544;19.074;2023-04-27T09:52:03;100680.91;;;20.18;26.94
63622;BME280;49770;47.544;19.074;2023-04-27T09:55:14;100676.59;;;21.70;23.74
63622;BME280;49770;47.544;19.074;2023-04-27T10:01:38;100675.75;;;24.93;21.31
63622;BME280;49770;47.544;19.074;2023-04-27T10:08:22;100671.16;;;24.93;19.08
63622;BME280;49770;47.544;19.074;2023-04-27T10:11:41;100661.34;;;24.66;20.03
63622;BME280;49770;47.544;19.074;2023-04-27T10:14:54;100647.59;;;22.59;22.02
63622;BME280;49770;47.544;19.074;2023-04-27T10:18:05;100654.19;;;20.67;23.72
63622;BME280;49770;47.544;19.074;2023-04-27T10:21:12;100651.59;;;18.01;26.27
63622;BME280;49770;47.544;19.074;2023-04-27T10:24:30;100655.34;;;17.51;27.17
63622;BME280;49770;47.544;19.074;2023-04-27T10:27:38;100648.31;;;17.97;27.06
63622;BME280;49770;47.544;19.074;2023-04-27T10:30:46;100647.72;;;17.69;26.90
63622;BME280;49770;47.544;19.074;2023-04-27T10:33:52;100651.41;;;17.44;26.63
63622;BME280;49770;47.544;19.074;2023-04-27T10:37:07;100639.25;;;18.45;26.78
63622;BME280;49770;47.544;19.074;2023-04-27T10:40:11;100651.84;;;23.18;20.78
63622;BME280;49770;47.544;19.074;2023-04-27T10:43:17;100657.78;;;20.46;23.43
63622;BME280;49770;47.544;19.074;2023-04-27T10:46:20;100650.69;;;18.36;25.98
63622;BME280;49770;47.544;19.074;2023-04-27T10:49:26;100655.38;;;18.68;26.17
63622;BME280;49770;47.544;19.074;2023-04-27T10:52:32;100653.56;;;19.69;24.21
63622;BME280;49770;47.544;19.074;2023-04-27T10:55:36;100645.91;;;19.20;26.19
63622;BME280;49770;47.544;19.074;2023-04-27T10:58:39;100645.56;;;18.90;25.80
63622;BME280;49770;47.544;19.074;2023-04-27T11:01:52;100645.47;;;18.35;26.03
63622;BME280;49770;47.544;19.074;2023-04-27T11:04:55;100648.75;;;18.95;24.91
63622;BME280;49770;47.544;19.074;2023-04-27T11:08:14;100639.25;;;18.45;26.65
63622;BME280;49770;47.544;19.074;2023-04-27T11:11:17;100652.19;;;19.53;25.02
63622;BME280;49770;47.544;19.074;2023-04-27T11:14:22;100645.78;;;19.21;24.96
63622;BME280;49770;47.544;19.074;2023-04-27T11:17:28;100638.50;;;19.12;25.60
63622;BME280;49770;47.544;19.074;2023-04-27T11:20:33;100646.25;;;19.71;25.10
63622;BME280;49770;47.544;19.074;2023-04-27T11:23:37;100633.34;;;18.97;25.20
63622;BME280;49770;47.544;19.074;2023-04-27T11:26:50;100635.91;;;19.22;25.33
63622;BME280;49770;47.544;19.074;2023-04-27T11:29:54;100632.78;;;18.59;25.43
63622;BME280;49770;47.544;19.074;2023-04-27T11:33:07;100621.81;;;17.57;26.36
63622;BME280;49770;47.544;19.074;2023-04-27T11:36:20;100638.66;;;18.53;26.22
63622;BME280;49770;47.544;19.074;2023-04-27T11:39:28;100642.78;;;17.87;26.66
63622;BME280;49770;47.544;19.074;2023-04-27T11:42:35;100638.25;;;17.28;26.72
63622;BME280;49770;47.544;19.074;2023-04-27T11:45:43;100632.78;;;16.28;28.16
63622;BME280;49770;47.544;19.074;2023-04-27T11:48:48;100627.84;;;16.22;28.50
63622;BME280;49770;47.544;19.074;2023-04-27T11:51:55;100627.44;;;17.29;28.58
63622;BME280;49770;47.544;19.074;2023-04-27T11:55:07;100631.78;;;18.38;26.40
63622;BME280;49770;47.544;19.074;2023-04-27T11:58:14;100627.53;;;18.47;26.52
63622;BME280;49770;47.544;19.074;2023-04-27T12:01:19;100631.44;;;18.31;25.91
63622;BME280;49770;47.544;19.074;2023-04-27T12:04:37;100619.47;;;18.35;25.82
63622;BME280;49770;47.544;19.074;2023-04-27T12:07:41;100621.66;;;18.30;27.37
63622;BME280;49770;47.544;19.074;2023-04-27T12:10:49;100620.81;;;17.22;27.74
63622;BME280;49770;47.544;19.074;2023-04-27T12:14:02;100616.16;;;17.00;29.30
63622;BME280;49770;47.544;19.074;2023-04-27T12:17:06;100623.16;;;15.85;30.38
63622;BME280;49770;47.544;19.074;2023-04-27T12:20:11;100624.22;;;15.70;29.27
63622;BME280;49770;47.544;19.074;2023-04-27T12:23:15;100629.47;;;15.71;30.39
63622;BME280;49770;47.544;19.074;2023-04-27T12:26:18;100613.50;;;16.36;31.75
63622;BME280;49770;47.544;19.074;2023-04-27T12:29:22;100623.09;;;15.46;29.78
63622;BME280;49770;47.544;19.074;2023-04-27T12:32:28;100615.19;;;15.17;30.28
63622;BME280;49770;47.544;19.074;2023-04-27T12:35:33;100620.13;;;15.64;30.14
63622;BME280;49770;47.544;19.074;2023-04-27T12:38:40;100620.03;;;16.32;30.32
63622;BME280;49770;47.544;19.074;2023-04-27T12:41:47;100611.00;;;16.59;29.35
63622;BME280;49770;47.544;19.074;2023-04-27T12:44:52;100611.84;;;16.73;28.30
63622;BME280;49770;47.544;19.074;2023-04-27T12:48:00;100617.47;;;16.17;29.59
63622;BME280;49770;47.544;19.074;2023-04-27T12:51:06;100615.63;;;16.18;31.00
63622;BME280;49770;47.544;19.074;2023-04-27T12:54:12;100614.91;;;16.79;30.26
63622;BME280;49770;47.544;19.074;2023-04-27T12:57:19;100615.53;;;16.83;29.48
63622;BME280;49770;47.544;19.074;2023-04-27T13:00:24;100607.56;;;16.44;29.52
63622;BME280;49770;47.544;19.074;2023-04-27T13:03:30;100610.47;;;16.54;29.46
63622;BME280;49770;47.544;19.074;2023-04-27T13:06:35;100617.44;;;16.43;29.28
63622;BME280;49770;47.544;19.074;2023-04-27T13:09:38;100607.72;;;16.42;29.65
63622;BME280;49770;47.544;19.074;2023-04-27T13:12:42;100609.81;;;16.50;30.11
63622;BME280;49770;47.544;19.074;2023-04-27T13:15:47;100607.91;;;16.00;30.95
63622;BME280;49770;47.544;19.074;2023-04-27T13:18:52;100612.78;;;15.68;30.10
63622;BME280;49770;47.544;19.074;2023-04-27T13:22:00;100608.59;;;15.76;30.33
63622;BME280;49770;47.544;19.074;2023-04-27T13:25:05;100611.44;;;14.92;30.78
63622;BME280;49770;47.544;19.074;2023-04-27T13:28:10;100610.81;;;15.57;31.19
63622;BME280;49770;47.544;19.074;2023-04-27T13:31:14;100605.06;;;15.22;30.74
63622;BME280;49770;47.544;19.074;2023-04-27T13:34:18;100599.41;;;15.68;35.11
63622;BME280;49770;47.544;19.074;2023-04-27T13:37:23;100605.78;;;16.19;34.15
63622;BME280;49770;47.544;19.074;2023-04-27T13:40:28;100604.25;;;16.53;33.56
63622;BME280;49770;47.544;19.074;2023-04-27T13:43:32;100606.19;;;15.99;31.20
63622;BME280;49770;47.544;19.074;2023-04-27T13:46:39;100606.53;;;15.95;31.50
63622;BME280;49770;47.544;19.074;2023-04-27T13:49:42;100610.28;;;15.92;30.11
63622;BME280;49770;47.544;19.074;2023-04-27T13:52:47;100606.16;;;15.73;30.38
63622;BME280;49770;47.544;19.074;2023-04-27T13:55:56;100603.37;;;15.88;30.12
63622;BME280;49770;47.544;19.074;2023-04-27T13:59:01;100605.38;;;15.58;32.94
63622;BME280;49770;47.544;19.074;2023-04-27T14:02:08;100602.94;;;15.68;30.39
63622;BME280;49770;47.544;19.074;2023-04-27T14:05:15;100601.06;;;15.43;29.72
63622;BME280;49770;47.544;19.074;2023-04-27T14:08:21;100606.41;;;15.43;30.20
63622;BME280;49770;47.544;19.074;2023-04-27T14:11:28;100600.97;;;15.57;29.85
63622;BME280;49770;47.544;19.074;2023-04-27T14:14:45;100603.84;;;15.54;28.90
63622;BME280;49770;47.544;19.074;2023-04-27T14:17:52;100603.56;;;15.72;31.02
63622;BME280;49770;47.544;19.074;2023-04-27T14:20:56;100601.72;;;16.13;30.26
63622;BME280;49770;47.544;19.074;2023-04-27T14:24:03;100594.00;;;16.34;31.85
63622;BME280;49770;47.544;19.074;2023-04-27T14:27:09;100614.50;;;15.82;28.76
63622;BME280;49770;47.544;19.074;2023-04-27T14:30:15;100617.72;;;15.74;29.33
63622;BME280;49770;47.544;19.074;2023-04-27T14:33:21;100624.19;;;15.57;29.11
63622;BME280;49770;47.544;19.074;2023-04-27T14:36:25;100619.78;;;15.15;29.99
63622;BME280;49770;47.544;19.074;2023-04-27T14:39:30;100618.28;;;15.24;29.62
63622;BME280;49770;47.544;19.074;2023-04-27T14:42:36;100622.16;;;15.60;30.01
63622;BME280;49770;47.544;19.074;2023-04-27T14:45:40;100616.63;;;15.63;29.80
63622;BME280;49770;47.544;19.074;2023-04-27T14:48:59;100615.41;;;15.00;31.46
63622;BME280;49770;47.544;19.074;2023-04-27T14:52:07;100614.31;;;15.44;30.61
63622;BME280;49770;47.544;19.074;2023-04-27T14:55:14;100621.66;;;15.13;30.44
63622;BME280;49770;47.544;19.074;2023-04-27T14:58:21;100619.63;;;15.31;30.74
63622;BME280;49770;47.544;19.074;2023-04-27T15:01:28;100615.69;;;15.37;30.63
63622;BME280;49770;47.544;19.074;2023-04-27T15:04:35;100627.34;;;15.36;29.99
63622;BME280;49770;47.544;19.074;2023-04-27T15:07:43;100628.19;;;15.36;30.54
63622;BME280;49770;47.544;19.074;2023-04-27T15:10:50;100618.78;;;14.89;31.06
63622;BME280;49770;47.544;19.074;2023-04-27T15:13:57;100623.75;;;14.80;30.99
63622;BME280;49770;47.544;19.074;2023-04-27T15:17:05;100621.94;;;14.23;31.27
63622;BME280;49770;47.544;19.074;2023-04-27T15:20:11;100620.03;;;14.25;31.90
63622;BME280;49770;47.544;19.074;2023-04-27T15:23:20;100620.78;;;14.12;32.13
63622;BME280;49770;47.544;19.074;2023-04-27T15:26:29;100610.66;;;14.47;31.51
63622;BME280;49770;47.544;19.074;2023-04-27T15:29:40;100615.56;;;14.25;31.68
63622;BME280;49770;47.544;19.074;2023-04-27T15:32:48;100618.78;;;14.16;32.17
63622;BME280;49770;47.544;19.074;2023-04-27T15:35:56;100619.44;;;14.34;32.24
63622;BME280;49770;47.544;19.074;2023-04-27T15:39:08;100615.81;;;13.92;32.40
